sensor_id;sensor_type;location;lat;lon;timestamp;P1;durP1;ratioP1;P2;durP2;ratioP2
8225;SDS011;4154;48.810;9.012;2023-05-29T00:01:22;6.28;;;5.00;;
8225;SDS011;4154;48.810;9.012;2023-05-29T00:03:49;7.13;;;5.28;;
8225;SDS011;4154;48.810;9.012;2023-05-29T00:06:15;7.30;;;4.97;;
8225;SDS011;4154;48.810;9.012;2023-05-29T00:08:41;6.22;;;4.90;;
8225;SDS011;4154;48.810;9.012;2023-05-29T00:11:07;5.22;;;4.72;;
8225;SDS011;4154;48.810;9.012;2023-05-29T00:13:33;5.10;;;4.60;;
8225;SDS011;4154;48.810;9.012;2023-05-29T00:15:59;5.72;;;5.18;;
8225;SDS011;4154;48.810;9.012;2023-05-29T00:18:25;6.20;;;4.80;;
8225;SDS011;4154;48.810;9.012;2023-05-29T00:20:52;7.25;;;4.80;;
8225;SDS011;4154;48.810;9.012;2023-05-29T00:23:18;7.47;;;5.32;;
8225;SDS011;4154;48.810;9.012;2023-05-29T00:25:46;6.10;;;4.90;;
8225;SDS011;4154;48.810;9.012;2023-05-29T00:28:12;7.55;;;4.93;;
8225;SDS011;4154;48.810;9.012;2023-05-29T00:30:38;6.30;;;5.10;;
8225;SDS011;4154;48.810;9.012;2023-05-29T00:33:04;8.23;;;5.45;;
8225;SDS011;4154;48.810;9.012;2023-05-29T00:35:31;7.22;;;4.95;;
8225;SDS011;4154;48.810;9.012;2023-05-29T00:37:57;6.45;;;5.22;;
8225;SDS011;4154;48.810;9.012;2023-05-29T00:40:23;7.43;;;5.00;;
8225;SDS011;4154;48.810;9.012;2023-05-29T00:42:50;7.47;;;5.00;;
8225;SDS011;4154;48.810;9.012;2023-05-29T00:45:16;9.02;;;5.43;;
8225;SDS011;4154;48.810;9.012;2023-05-29T00:47:42;5.85;;;5.07;;
8225;SDS011;4154;48.810;9.012;2023-05-29T00:50:08;6.90;;;5.05;;
8225;SDS011;4154;48.810;9.012;2023-05-29T00:52:36;8.18;;;5.07;;
8225;SDS011;4154;48.810;9.012;2023-05-29T00:55:04;5.90;;;5.00;;
8225;SDS011;4154;48.810;9.012;2023-05-29T00:57:32;6.40;;;5.30;;
8225;SDS011;4154;48.810;9.012;2023-05-29T00:59:59;7.43;;;5.35;;
8225;SDS011;4154;48.810;9.012;2023-05-29T01:02:30;8.48;;;5.15;;
8225;SDS011;4154;48.810;9.012;2023-05-29T01:04:56;5.30;;;4.80;;
8225;SDS011;4154;48.810;9.012;2023-05-29T01:07:22;5.82;;;4.95;;
8225;SDS011;4154;48.810;9.012;2023-05-29T01:09:48;6.93;;;4.70;;
8225;SDS011;4154;48.810;9.012;2023-05-29T01:21:14;6.20;;;4.50;;
8225;SDS011;4154;48.810;9.012;2023-05-29T01:29:38;5.97;;;4.63;;
8225;SDS011;4154;48.810;9.012;2023-05-29T01:32:08;7.68;;;5.10;;
8225;SDS011;4154;48.810;9.012;2023-05-29T01:34:35;5.53;;;5.03;;
8225;SDS011;4154;48.810;9.012;2023-05-29T01:37:01;6.15;;;5.10;;
8225;SDS011;4154;48.810;9.012;2023-05-29T01:39:27;7.22;;;5.00;;
8225;SDS011;4154;48.810;9.012;2023-05-29T01:41:55;6.10;;;5.20;;
8225;SDS011;4154;48.810;9.012;2023-05-29T01:44:21;7.93;;;5.57;;
8225;SDS011;4154;48.810;9.012;2023-05-29T01:46:49;8.23;;;5.90;;
8225;SDS011;4154;48.810;9.012;2023-05-29T01:49:15;6.82;;;5.47;;
8225;SDS011;4154;48.810;9.012;2023-05-29T01:51:42;7.22;;;5.55;;
8225;SDS011;4154;48.810;9.012;2023-05-29T01:54:09;8.13;;;5.50;;
8225;SDS011;4154;48.810;9.012;2023-05-29T01:56:35;8.02;;;5.10;;
8225;SDS011;4154;48.810;9.012;2023-05-29T01:59:02;6.90;;;5.40;;
8225;SDS011;4154;48.810;9.012;2023-05-29T02:01:29;6.70;;;5.47;;
8225;SDS011;4154;48.810;9.012;2023-05-29T02:03:56;7.03;;;5.43;;
8225;SDS011;4154;48.810;9.012;2023-05-29T02:06:21;8.85;;;5.22;;
8225;SDS011;4154;48.810;9.012;2023-05-29T02:08:48;6.47;;;5.38;;
8225;SDS011;4154;48.810;9.012;2023-05-29T02:11:13;6.68;;;4.95;;
8225;SDS011;4154;48.810;9.012;2023-05-29T02:13:39;5.20;;;4.65;;
8225;SDS011;4154;48.810;9.012;2023-05-29T02:16:06;6.03;;;4.97;;
8225;SDS011;4154;48.810;9.012;2023-05-29T02:18:31;6.65;;;4.95;;
8225;SDS011;4154;48.810;9.012;2023-05-29T02:20:59;5.80;;;5.20;;
8225;SDS011;4154;48.810;9.012;2023-05-29T02:23:25;7.30;;;5.30;;
8225;SDS011;4154;48.810;9.012;2023-05-29T02:25:51;5.85;;;5.03;;
8225;SDS011;4154;48.810;9.012;2023-05-29T02:28:17;7.57;;;5.38;;
8225;SDS011;4154;48.810;9.012;2023-05-29T02:30:43;6.20;;;5.10;;
8225;SDS011;4154;48.810;9.012;2023-05-29T02:33:08;6.67;;;5.13;;
8225;SDS011;4154;48.810;9.012;2023-05-29T02:35:34;6.30;;;5.23;;
8225;SDS011;4154;48.810;9.012;2023-05-29T02:38:00;7.40;;;5.87;;
8225;SDS011;4154;48.810;9.012;2023-05-29T02:40:26;5.83;;;5.00;;
8225;SDS011;4154;48.810;9.012;2023-05-29T02:42:51;7.35;;;5.93;;
8225;SDS011;4154;48.810;9.012;2023-05-29T02:45:18;6.97;;;5.43;;
8225;SDS011;4154;48.810;9.012;2023-05-29T02:47:44;5.80;;;5.17;;
8225;SDS011;4154;48.810;9.012;2023-05-29T02:50:10;7.77;;;5.00;;
8225;SDS011;4154;48.810;9.012;2023-05-29T02:52:36;6.70;;;5.17;;
8225;SDS011;4154;48.810;9.012;2023-05-29T02:55:02;7.30;;;5.00;;
8225;SDS011;4154;48.810;9.012;2023-05-29T02:57:30;6.97;;;5.10;;
8225;SDS011;4154;48.810;9.012;2023-05-29T02:59:57;6.17;;;4.90;;
8225;SDS011;4154;48.810;9.012;2023-05-29T03:02:23;7.07;;;4.90;;
8225;SDS011;4154;48.810;9.012;2023-05-29T03:04:49;8.50;;;5.17;;
8225;SDS011;4154;48.810;9.012;2023-05-29T03:07:15;5.83;;;4.90;;
8225;SDS011;4154;48.810;9.012;2023-05-29T03:09:41;6.40;;;4.73;;
8225;SDS011;4154;48.810;9.012;2023-05-29T03:12:07;5.33;;;4.83;;
8225;SDS011;4154;48.810;9.012;2023-05-29T03:14:33;6.13;;;4.97;;
8225;SDS011;4154;48.810;9.012;2023-05-29T03:17:01;6.80;;;5.10;;
8225;SDS011;4154;48.810;9.012;2023-05-29T03:19:30;6.87;;;4.57;;
8225;SDS011;4154;48.810;9.012;2023-05-29T03:21:56;5.73;;;4.77;;
8225;SDS011;4154;48.810;9.012;2023-05-29T03:24:22;5.67;;;4.57;;
8225;SDS011;4154;48.810;9.012;2023-05-29T03:26:48;5.37;;;4.77;;
8225;SDS011;4154;48.810;9.012;2023-05-29T03:29:15;6.93;;;5.10;;
8225;SDS011;4154;48.810;9.012;2023-05-29T03:31:41;7.73;;;4.70;;
8225;SDS011;4154;48.810;9.012;2023-05-29T03:34:07;6.33;;;4.80;;
8225;SDS011;4154;48.810;9.012;2023-05-29T03:36:33;6.93;;;5.30;;
8225;SDS011;4154;48.810;9.012;2023-05-29T03:39:01;5.77;;;4.47;;
8225;SDS011;4154;48.810;9.012;2023-05-29T03:41:27;6.90;;;4.93;;
8225;SDS011;4154;48.810;9.012;2023-05-29T03:43:54;6.77;;;5.13;;
8225;SDS011;4154;48.810;9.012;2023-05-29T03:46:20;5.70;;;4.53;;
8225;SDS011;4154;48.810;9.012;2023-05-29T03:48:46;7.10;;;4.83;;
8225;SDS011;4154;48.810;9.012;2023-05-29T03:51:12;6.07;;;4.60;;
8225;SDS011;4154;48.810;9.012;2023-05-29T03:53:38;6.27;;;4.73;;
8225;SDS011;4154;48.810;9.012;2023-05-29T03:56:04;5.07;;;4.53;;
8225;SDS011;4154;48.810;9.012;2023-05-29T03:58:30;6.33;;;5.10;;
8225;SDS011;4154;48.810;9.012;2023-05-29T04:00:56;6.83;;;4.90;;
8225;SDS011;4154;48.810;9.012;2023-05-29T04:03:22;7.30;;;5.30;;
8225;SDS011;4154;48.810;9.012;2023-05-29T04:05:49;5.77;;;4.90;;
8225;SDS011;4154;48.810;9.012;2023-05-29T04:08:15;6.40;;;5.20;;
8225;SDS011;4154;48.810;9.012;2023-05-29T04:10:41;5.80;;;4.93;;
8225;SDS011;4154;48.810;9.012;2023-05-29T04:13:08;5.77;;;4.80;;
8225;SDS011;4154;48.810;9.012;2023-05-29T04:15:34;5.73;;;5.03;;
8225;SDS011;4154;48.810;9.012;2023-05-29T04:18:00;5.93;;;4.93;;
8225;SDS011;4154;48.810;9.012;2023-05-29T04:20:26;6.37;;;5.10;;
8225;SDS011;4154;48.810;9.012;2023-05-29T04:22:52;5.63;;;4.70;;
8225;SDS011;4154;48.810;9.012;2023-05-29T04:25:18;6.83;;;5.03;;
8225;SDS011;4154;48.810;9.012;2023-05-29T04:27:44;6.23;;;5.00;;
8225;SDS011;4154;48.810;9.012;2023-05-29T04:30:14;5.77;;;4.97;;
8225;SDS011;4154;48.810;9.012;2023-05-29T04:32:41;6.77;;;5.17;;
8225;SDS011;4154;48.810;9.012;2023-05-29T04:35:07;6.63;;;5.00;;
8225;SDS011;4154;48.810;9.012;2023-05-29T04:37:35;5.40;;;4.87;;
8225;SDS011;4154;48.810;9.012;2023-05-29T04:40:04;7.00;;;4.90;;
8225;SDS011;4154;48.810;9.012;2023-05-29T04:42:34;7.47;;;5.03;;
8225;SDS011;4154;48.810;9.012;2023-05-29T04:45:05;6.57;;;4.77;;
8225;SDS011;4154;48.810;9.012;2023-05-29T04:47:31;5.63;;;4.50;;
8225;SDS011;4154;48.810;9.012;2023-05-29T04:49:58;6.10;;;4.97;;
8225;SDS011;4154;48.810;9.012;2023-05-29T04:52:25;6.43;;;4.93;;
8225;SDS011;4154;48.810;9.012;2023-05-29T04:54:51;5.77;;;4.80;;
8225;SDS011;4154;48.810;9.012;2023-05-29T04:57:17;5.20;;;4.70;;
8225;SDS011;4154;48.810;9.012;2023-05-29T04:59:43;8.03;;;5.33;;
8225;SDS011;4154;48.810;9.012;2023-05-29T05:02:08;6.57;;;5.07;;
8225;SDS011;4154;48.810;9.012;2023-05-29T05:04:35;6.10;;;4.83;;
8225;SDS011;4154;48.810;9.012;2023-05-29T05:07:01;5.80;;;4.87;;
8225;SDS011;4154;48.810;9.012;2023-05-29T05:09:28;7.07;;;4.70;;
8225;SDS011;4154;48.810;9.012;2023-05-29T05:11:54;6.03;;;4.97;;
8225;SDS011;4154;48.810;9.012;2023-05-29T05:14:20;5.93;;;4.97;;
8225;SDS011;4154;48.810;9.012;2023-05-29T05:16:47;5.60;;;5.00;;
8225;SDS011;4154;48.810;9.012;2023-05-29T05:19:12;7.40;;;5.30;;
8225;SDS011;4154;48.810;9.012;2023-05-29T05:21:38;8.13;;;4.87;;
8225;SDS011;4154;48.810;9.012;2023-05-29T05:24:04;5.53;;;5.00;;
8225;SDS011;4154;48.810;9.012;2023-05-29T05:26:31;6.57;;;5.20;;
8225;SDS011;4154;48.810;9.012;2023-05-29T05:28:57;7.33;;;5.13;;
8225;SDS011;4154;48.810;9.012;2023-05-29T05:31:23;6.27;;;5.03;;
8225;SDS011;4154;48.810;9.012;2023-05-29T05:33:49;6.43;;;4.87;;
8225;SDS011;4154;48.810;9.012;2023-05-29T05:36:15;7.37;;;5.17;;
8225;SDS011;4154;48.810;9.012;2023-05-29T05:38:41;5.50;;;5.00;;
8225;SDS011;4154;48.810;9.012;2023-05-29T05:41:07;6.03;;;5.10;;
8225;SDS011;4154;48.810;9.012;2023-05-29T05:43:36;6.20;;;4.90;;
8225;SDS011;4154;48.810;9.012;2023-05-29T05:46:02;5.70;;;5.10;;
8225;SDS011;4154;48.810;9.012;2023-05-29T05:48:27;6.70;;;5.50;;
8225;SDS011;4154;48.810;9.012;2023-05-29T05:50:53;6.53;;;4.83;;
8225;SDS011;4154;48.810;9.012;2023-05-29T05:53:19;5.85;;;4.90;;
8225;SDS011;4154;48.810;9.012;2023-05-29T05:55:46;5.28;;;4.78;;
8225;SDS011;4154;48.810;9.012;2023-05-29T05:58:12;6.00;;;4.80;;
8225;SDS011;4154;48.810;9.012;2023-05-29T06:00:39;6.03;;;4.63;;
8225;SDS011;4154;48.810;9.012;2023-05-29T06:03:05;6.68;;;5.10;;
8225;SDS011;4154;48.810;9.012;2023-05-29T06:05:30;5.25;;;4.53;;
8225;SDS011;4154;48.810;9.012;2023-05-29T06:07:57;5.82;;;4.63;;
8225;SDS011;4154;48.810;9.012;2023-05-29T06:10:22;6.20;;;4.50;;
8225;SDS011;4154;48.810;9.012;2023-05-29T06:12:48;7.70;;;4.28;;
8225;SDS011;4154;48.810;9.012;2023-05-29T06:15:14;4.75;;;3.92;;
8225;SDS011;4154;48.810;9.012;2023-05-29T06:17:40;5.13;;;3.90;;
8225;SDS011;4154;48.810;9.012;2023-05-29T06:20:06;6.05;;;3.80;;
8225;SDS011;4154;48.810;9.012;2023-05-29T06:22:35;5.05;;;3.80;;
8225;SDS011;4154;48.810;9.012;2023-05-29T06:25:02;5.43;;;4.00;;
8225;SDS011;4154;48.810;9.012;2023-05-29T06:27:28;5.75;;;3.85;;
8225;SDS011;4154;48.810;9.012;2023-05-29T06:29:54;6.65;;;4.30;;
8225;SDS011;4154;48.810;9.012;2023-05-29T06:32:20;5.82;;;3.88;;
8225;SDS011;4154;48.810;9.012;2023-05-29T06:34:46;4.75;;;3.65;;
8225;SDS011;4154;48.810;9.012;2023-05-29T06:37:12;5.68;;;3.38;;
8225;SDS011;4154;48.810;9.012;2023-05-29T06:39:38;4.70;;;3.55;;
8225;SDS011;4154;48.810;9.012;2023-05-29T06:42:06;5.10;;;4.15;;
8225;SDS011;4154;48.810;9.012;2023-05-29T06:44:33;5.03;;;3.60;;
8225;SDS011;4154;48.810;9.012;2023-05-29T06:46:59;8.45;;;4.18;;
8225;SDS011;4154;48.810;9.012;2023-05-29T06:49:25;5.70;;;4.15;;
8225;SDS011;4154;48.810;9.012;2023-05-29T06:51:51;5.72;;;3.97;;
8225;SDS011;4154;48.810;9.012;2023-05-29T06:54:17;5.55;;;3.92;;
8225;SDS011;4154;48.810;9.012;2023-05-29T06:56:43;4.65;;;3.90;;
8225;SDS011;4154;48.810;9.012;2023-05-29T06:59:08;5.03;;;4.10;;
8225;SDS011;4154;48.810;9.012;2023-05-29T07:01:34;5.57;;;4.00;;
8225;SDS011;4154;48.810;9.012;2023-05-29T07:04:00;4.20;;;3.80;;
8225;SDS011;4154;48.810;9.012;2023-05-29T07:06:26;5.78;;;3.90;;
8225;SDS011;4154;48.810;9.012;2023-05-29T07:08:52;4.82;;;4.10;;
8225;SDS011;4154;48.810;9.012;2023-05-29T07:11:18;5.60;;;4.20;;
8225;SDS011;4154;48.810;9.012;2023-05-29T07:13:44;5.85;;;4.07;;
8225;SDS011;4154;48.810;9.012;2023-05-29T07:16:10;5.07;;;4.00;;
8225;SDS011;4154;48.810;9.012;2023-05-29T07:18:36;6.10;;;4.13;;
8225;SDS011;4154;48.810;9.012;2023-05-29T07:21:02;5.97;;;4.05;;
8225;SDS011;4154;48.810;9.012;2023-05-29T07:23:27;4.80;;;3.70;;
8225;SDS011;4154;48.810;9.012;2023-05-29T07:25:53;4.65;;;3.92;;
8225;SDS011;4154;48.810;9.012;2023-05-29T07:28:19;5.20;;;4.35;;
8225;SDS011;4154;48.810;9.012;2023-05-29T07:30:44;5.25;;;3.88;;
8225;SDS011;4154;48.810;9.012;2023-05-29T07:33:10;5.22;;;4.00;;
8225;SDS011;4154;48.810;9.012;2023-05-29T07:35:36;5.15;;;4.20;;
8225;SDS011;4154;48.810;9.012;2023-05-29T07:38:02;7.15;;;4.38;;
8225;SDS011;4154;48.810;9.012;2023-05-29T07:40:28;7.05;;;4.10;;
8225;SDS011;4154;48.810;9.012;2023-05-29T07:42:54;5.68;;;4.18;;
8225;SDS011;4154;48.810;9.012;2023-05-29T07:45:20;5.47;;;3.92;;
8225;SDS011;4154;48.810;9.012;2023-05-29T07:47:46;6.00;;;4.20;;
8225;SDS011;4154;48.810;9.012;2023-05-29T07:50:13;5.88;;;3.70;;
8225;SDS011;4154;48.810;9.012;2023-05-29T07:52:39;5.38;;;4.35;;
8225;SDS011;4154;48.810;9.012;2023-05-29T07:55:07;4.75;;;3.75;;
8225;SDS011;4154;48.810;9.012;2023-05-29T07:57:32;4.68;;;3.72;;
8225;SDS011;4154;48.810;9.012;2023-05-29T07:59:58;4.05;;;3.63;;
8225;SDS011;4154;48.810;9.012;2023-05-29T08:02:24;5.68;;;3.90;;
8225;SDS011;4154;48.810;9.012;2023-05-29T08:04:51;5.85;;;3.70;;
8225;SDS011;4154;48.810;9.012;2023-05-29T08:07:17;6.20;;;4.13;;
8225;SDS011;4154;48.810;9.012;2023-05-29T08:09:43;5.20;;;3.83;;
8225;SDS011;4154;48.810;9.012;2023-05-29T08:12:09;6.25;;;3.80;;
8225;SDS011;4154;48.810;9.012;2023-05-29T08:14:35;6.30;;;3.78;;
8225;SDS011;4154;48.810;9.012;2023-05-29T08:17:01;4.82;;;3.72;;
8225;SDS011;4154;48.810;9.012;2023-05-29T08:19:27;6.22;;;3.65;;
8225;SDS011;4154;48.810;9.012;2023-05-29T08:21:53;5.13;;;4.10;;
8225;SDS011;4154;48.810;9.012;2023-05-29T08:24:20;8.32;;;4.03;;
8225;SDS011;4154;48.810;9.012;2023-05-29T08:26:46;6.40;;;4.05;;
8225;SDS011;4154;48.810;9.012;2023-05-29T08:29:12;5.57;;;3.85;;
8225;SDS011;4154;48.810;9.012;2023-05-29T08:31:38;5.13;;;4.30;;
8225;SDS011;4154;48.810;9.012;2023-05-29T08:34:03;5.22;;;3.88;;
8225;SDS011;4154;48.810;9.012;2023-05-29T08:36:31;5.80;;;3.60;;
8225;SDS011;4154;48.810;9.012;2023-05-29T08:38:57;7.47;;;4.20;;
8225;SDS011;4154;48.810;9.012;2023-05-29T08:41:25;4.63;;;4.00;;
8225;SDS011;4154;48.810;9.012;2023-05-29T08:44:03;5.80;;;4.38;;
8225;SDS011;4154;48.810;9.012;2023-05-29T08:46:32;5.18;;;4.00;;
8225;SDS011;4154;48.810;9.012;2023-05-29T08:49:00;6.90;;;4.50;;
8225;SDS011;4154;48.810;9.012;2023-05-29T08:51:27;6.13;;;4.50;;
8225;SDS011;4154;48.810;9.012;2023-05-29T08:53:59;5.00;;;3.92;;
8225;SDS011;4154;48.810;9.012;2023-05-29T08:56:27;6.28;;;4.22;;
8225;SDS011;4154;48.810;9.012;2023-05-29T08:58:52;7.13;;;4.22;;
8225;SDS011;4154;48.810;9.012;2023-05-29T09:01:19;6.18;;;4.20;;
8225;SDS011;4154;48.810;9.012;2023-05-29T09:03:47;5.03;;;4.13;;
8225;SDS011;4154;48.810;9.012;2023-05-29T09:06:13;4.93;;;4.13;;
8225;SDS011;4154;48.810;9.012;2023-05-29T09:08:39;5.18;;;3.95;;
8225;SDS011;4154;48.810;9.012;2023-05-29T09:11:04;6.65;;;4.30;;
8225;SDS011;4154;48.810;9.012;2023-05-29T09:13:30;5.78;;;4.18;;
8225;SDS011;4154;48.810;9.012;2023-05-29T09:15:57;5.30;;;3.67;;
8225;SDS011;4154;48.810;9.012;2023-05-29T09:18:28;5.70;;;4.05;;
8225;SDS011;4154;48.810;9.012;2023-05-29T09:20:55;5.05;;;4.00;;
8225;SDS011;4154;48.810;9.012;2023-05-29T09:23:22;6.30;;;4.57;;
8225;SDS011;4154;48.810;9.012;2023-05-29T09:25:53;7.20;;;4.80;;
8225;SDS011;4154;48.810;9.012;2023-05-29T09:28:20;4.38;;;3.97;;
8225;SDS011;4154;48.810;9.012;2023-05-29T09:30:48;5.40;;;4.20;;
8225;SDS011;4154;48.810;9.012;2023-05-29T09:33:15;7.55;;;4.50;;
8225;SDS011;4154;48.810;9.012;2023-05-29T09:35:45;5.57;;;4.10;;
8225;SDS011;4154;48.810;9.012;2023-05-29T09:38:15;6.20;;;4.13;;
8225;SDS011;4154;48.810;9.012;2023-05-29T09:40:43;5.30;;;4.30;;
8225;SDS011;4154;48.810;9.012;2023-05-29T09:43:13;5.82;;;4.13;;
8225;SDS011;4154;48.810;9.012;2023-05-29T09:45:46;6.53;;;4.45;;
8225;SDS011;4154;48.810;9.012;2023-05-29T09:48:15;7.00;;;4.03;;
8225;SDS011;4154;48.810;9.012;2023-05-29T09:50:48;4.70;;;4.13;;
8225;SDS011;4154;48.810;9.012;2023-05-29T09:53:21;6.40;;;4.65;;
8225;SDS011;4154;48.810;9.012;2023-05-29T09:55:53;7.38;;;4.63;;
8225;SDS011;4154;48.810;9.012;2023-05-29T09:58:20;4.88;;;4.15;;
8225;SDS011;4154;48.810;9.012;2023-05-29T10:00:47;6.22;;;4.40;;
8225;SDS011;4154;48.810;9.012;2023-05-29T10:03:14;5.53;;;4.22;;
8225;SDS011;4154;48.810;9.012;2023-05-29T10:05:42;5.70;;;4.10;;
8225;SDS011;4154;48.810;9.012;2023-05-29T10:08:12;4.28;;;3.83;;
8225;SDS011;4154;48.810;9.012;2023-05-29T10:10:46;5.78;;;4.05;;
8225;SDS011;4154;48.810;9.012;2023-05-29T10:13:24;7.18;;;4.00;;
8225;SDS011;4154;48.810;9.012;2023-05-29T10:15:52;5.28;;;4.13;;
8225;SDS011;4154;48.810;9.012;2023-05-29T10:18:20;8.35;;;4.25;;
8225;SDS011;4154;48.810;9.012;2023-05-29T10:21:02;5.03;;;3.90;;
8225;SDS011;4154;48.810;9.012;2023-05-29T10:23:29;5.20;;;3.97;;
8225;SDS011;4154;48.810;9.012;2023-05-29T10:26:04;5.30;;;4.15;;
8225;SDS011;4154;48.810;9.012;2023-05-29T10:28:39;5.60;;;4.15;;
8225;SDS011;4154;48.810;9.012;2023-05-29T10:31:14;4.88;;;3.80;;
8225;SDS011;4154;48.810;9.012;2023-05-29T10:33:57;6.97;;;4.18;;
8225;SDS011;4154;48.810;9.012;2023-05-29T10:36:48;5.35;;;4.10;;
8225;SDS011;4154;48.810;9.012;2023-05-29T10:39:25;5.28;;;4.22;;
8225;SDS011;4154;48.810;9.012;2023-05-29T10:41:51;5.35;;;4.00;;
8225;SDS011;4154;48.810;9.012;2023-05-29T10:44:37;5.65;;;4.00;;
8225;SDS011;4154;48.810;9.012;2023-05-29T10:47:05;5.72;;;4.30;;
8225;SDS011;4154;48.810;9.012;2023-05-29T10:49:33;6.00;;;4.18;;
8225;SDS011;4154;48.810;9.012;2023-05-29T10:51:59;5.78;;;3.90;;
8225;SDS011;4154;48.810;9.012;2023-05-29T10:54:28;5.13;;;4.15;;
8225;SDS011;4154;48.810;9.012;2023-05-29T10:57:14;5.38;;;4.03;;
8225;SDS011;4154;48.810;9.012;2023-05-29T10:59:40;4.45;;;3.47;;
8225;SDS011;4154;48.810;9.012;2023-05-29T11:02:06;4.65;;;3.60;;
8225;SDS011;4154;48.810;9.012;2023-05-29T11:04:33;4.97;;;3.42;;
8225;SDS011;4154;48.810;9.012;2023-05-29T11:07:01;6.50;;;3.90;;
8225;SDS011;4154;48.810;9.012;2023-05-29T11:09:35;5.28;;;3.55;;
8225;SDS011;4154;48.810;9.012;2023-05-29T11:12:16;5.53;;;3.55;;
8225;SDS011;4154;48.810;9.012;2023-05-29T11:15:10;5.30;;;3.70;;
8225;SDS011;4154;48.810;9.012;2023-05-29T11:20:09;4.65;;;3.90;;
8225;SDS011;4154;48.810;9.012;2023-05-29T11:25:24;5.25;;;3.20;;
8225;SDS011;4154;48.810;9.012;2023-05-29T11:27:51;4.13;;;3.25;;
8225;SDS011;4154;48.810;9.012;2023-05-29T11:30:17;4.82;;;3.67;;
8225;SDS011;4154;48.810;9.012;2023-05-29T11:32:44;7.72;;;3.83;;
8225;SDS011;4154;48.810;9.012;2023-05-29T11:35:21;4.78;;;3.40;;
8225;SDS011;4154;48.810;9.012;2023-05-29T11:37:47;5.15;;;3.80;;
8225;SDS011;4154;48.810;9.012;2023-05-29T11:40:15;6.68;;;3.67;;
8225;SDS011;4154;48.810;9.012;2023-05-29T11:42:45;3.85;;;3.45;;
8225;SDS011;4154;48.810;9.012;2023-05-29T11:45:14;5.57;;;3.47;;
8225;SDS011;4154;48.810;9.012;2023-05-29T11:47:59;4.95;;;3.30;;
8225;SDS011;4154;48.810;9.012;2023-05-29T11:50:28;4.90;;;3.67;;
8225;SDS011;4154;48.810;9.012;2023-05-29T11:52:57;7.05;;;3.65;;
8225;SDS011;4154;48.810;9.012;2023-05-29T11:55:24;4.55;;;3.60;;
8225;SDS011;4154;48.810;9.012;2023-05-29T11:58:01;4.47;;;3.50;;
8225;SDS011;4154;48.810;9.012;2023-05-29T12:00:36;4.60;;;3.58;;
8225;SDS011;4154;48.810;9.012;2023-05-29T12:03:04;3.83;;;3.30;;
8225;SDS011;4154;48.810;9.012;2023-05-29T12:05:31;4.10;;;3.38;;
8225;SDS011;4154;48.810;9.012;2023-05-29T12:08:14;4.55;;;3.80;;
8225;SDS011;4154;48.810;9.012;2023-05-29T12:10:50;7.45;;;6.75;;
8225;SDS011;4154;48.810;9.012;2023-05-29T12:13:21;6.28;;;4.10;;
8225;SDS011;4154;48.810;9.012;2023-05-29T12:15:49;3.97;;;3.45;;
8225;SDS011;4154;48.810;9.012;2023-05-29T12:18:20;6.82;;;3.60;;
8225;SDS011;4154;48.810;9.012;2023-05-29T12:20:46;3.30;;;2.97;;
8225;SDS011;4154;48.810;9.012;2023-05-29T12:23:12;4.88;;;3.45;;
8225;SDS011;4154;48.810;9.012;2023-05-29T12:25:38;5.25;;;3.28;;
8225;SDS011;4154;48.810;9.012;2023-05-29T12:28:05;4.13;;;3.53;;
8225;SDS011;4154;48.810;9.012;2023-05-29T12:30:31;4.97;;;3.60;;
8225;SDS011;4154;48.810;9.012;2023-05-29T12:33:01;4.47;;;3.85;;
8225;SDS011;4154;48.810;9.012;2023-05-29T12:35:28;4.47;;;3.53;;
8225;SDS011;4154;48.810;9.012;2023-05-29T12:37:55;3.70;;;3.40;;
8225;SDS011;4154;48.810;9.012;2023-05-29T12:40:30;4.88;;;3.40;;
8225;SDS011;4154;48.810;9.012;2023-05-29T12:43:02;3.45;;;3.15;;
8225;SDS011;4154;48.810;9.012;2023-05-29T12:45:30;4.47;;;3.28;;
8225;SDS011;4154;48.810;9.012;2023-05-29T12:47:59;4.32;;;3.03;;
8225;SDS011;4154;48.810;9.012;2023-05-29T12:50:30;6.13;;;3.63;;
8225;SDS011;4154;48.810;9.012;2023-05-29T12:53:02;6.10;;;3.67;;
8225;SDS011;4154;48.810;9.012;2023-05-29T12:55:34;4.63;;;3.30;;
8225;SDS011;4154;48.810;9.012;2023-05-29T12:58:03;4.88;;;3.40;;
8225;SDS011;4154;48.810;9.012;2023-05-29T13:00:30;3.42;;;3.10;;
8225;SDS011;4154;48.810;9.012;2023-05-29T13:02:57;3.88;;;3.53;;
8225;SDS011;4154;48.810;9.012;2023-05-29T13:05:23;3.50;;;3.20;;
8225;SDS011;4154;48.810;9.012;2023-05-29T13:07:50;4.20;;;3.53;;
8225;SDS011;4154;48.810;9.012;2023-05-29T13:10:19;4.00;;;3.10;;
8225;SDS011;4154;48.810;9.012;2023-05-29T13:12:47;5.60;;;3.90;;
8225;SDS011;4154;48.810;9.012;2023-05-29T13:15:19;4.25;;;3.83;;
8225;SDS011;4154;48.810;9.012;2023-05-29T13:17:47;5.13;;;3.90;;
8225;SDS011;4154;48.810;9.012;2023-05-29T13:20:13;4.38;;;3.83;;
8225;SDS011;4154;48.810;9.012;2023-05-29T13:22:40;4.53;;;3.47;;
8225;SDS011;4154;48.810;9.012;2023-05-29T13:25:08;3.92;;;3.40;;
8225;SDS011;4154;48.810;9.012;2023-05-29T13:27:38;4.07;;;3.10;;
8225;SDS011;4154;48.810;9.012;2023-05-29T13:30:08;4.80;;;3.53;;
8225;SDS011;4154;48.810;9.012;2023-05-29T13:32:37;3.50;;;3.20;;
8225;SDS011;4154;48.810;9.012;2023-05-29T13:35:05;4.05;;;3.20;;
8225;SDS011;4154;48.810;9.012;2023-05-29T13:37:31;4.07;;;3.15;;
8225;SDS011;4154;48.810;9.012;2023-05-29T13:39:57;3.60;;;2.95;;
8225;SDS011;4154;48.810;9.012;2023-05-29T13:42:23;3.75;;;3.20;;
8225;SDS011;4154;48.810;9.012;2023-05-29T13:44:50;3.78;;;3.35;;
8225;SDS011;4154;48.810;9.012;2023-05-29T13:47:16;3.55;;;3.20;;
8225;SDS011;4154;48.810;9.012;2023-05-29T13:49:42;3.83;;;3.40;;
8225;SDS011;4154;48.810;9.012;2023-05-29T13:52:08;3.70;;;3.25;;
8225;SDS011;4154;48.810;9.012;2023-05-29T13:54:34;4.35;;;2.90;;
8225;SDS011;4154;48.810;9.012;2023-05-29T13:57:01;4.28;;;3.42;;
8225;SDS011;4154;48.810;9.012;2023-05-29T13:59:28;7.20;;;3.25;;
8225;SDS011;4154;48.810;9.012;2023-05-29T14:01:58;5.05;;;3.17;;
8225;SDS011;4154;48.810;9.012;2023-05-29T14:04:24;3.40;;;3.10;;
8225;SDS011;4154;48.810;9.012;2023-05-29T14:06:51;4.03;;;3.17;;
8225;SDS011;4154;48.810;9.012;2023-05-29T14:09:18;3.95;;;3.00;;
8225;SDS011;4154;48.810;9.012;2023-05-29T14:11:54;3.40;;;3.10;;
8225;SDS011;4154;48.810;9.012;2023-05-29T14:14:23;5.22;;;3.40;;
8225;SDS011;4154;48.810;9.012;2023-05-29T14:16:49;3.35;;;3.03;;
8225;SDS011;4154;48.810;9.012;2023-05-29T14:19:17;3.40;;;3.10;;
8225;SDS011;4154;48.810;9.012;2023-05-29T14:21:43;4.28;;;3.38;;
8225;SDS011;4154;48.810;9.012;2023-05-29T14:24:09;3.38;;;3.08;;
8225;SDS011;4154;48.810;9.012;2023-05-29T14:26:36;4.97;;;3.45;;
8225;SDS011;4154;48.810;9.012;2023-05-29T14:29:02;4.22;;;3.30;;
8225;SDS011;4154;48.810;9.012;2023-05-29T14:31:29;4.93;;;3.50;;
8225;SDS011;4154;48.810;9.012;2023-05-29T14:33:55;3.88;;;2.90;;
8225;SDS011;4154;48.810;9.012;2023-05-29T14:36:22;5.90;;;3.50;;
8225;SDS011;4154;48.810;9.012;2023-05-29T14:38:48;4.10;;;3.10;;
8225;SDS011;4154;48.810;9.012;2023-05-29T14:41:14;3.92;;;3.20;;
8225;SDS011;4154;48.810;9.012;2023-05-29T14:43:43;4.45;;;3.30;;
8225;SDS011;4154;48.810;9.012;2023-05-29T14:46:09;4.68;;;3.42;;
8225;SDS011;4154;48.810;9.012;2023-05-29T14:48:35;3.58;;;3.28;;
8225;SDS011;4154;48.810;9.012;2023-05-29T14:51:01;3.70;;;3.40;;
8225;SDS011;4154;48.810;9.012;2023-05-29T14:53:27;4.22;;;3.33;;
8225;SDS011;4154;48.810;9.012;2023-05-29T14:55:58;3.55;;;3.00;;
8225;SDS011;4154;48.810;9.012;2023-05-29T14:58:24;3.45;;;3.15;;
8225;SDS011;4154;48.810;9.012;2023-05-29T15:00:50;5.07;;;2.90;;
8225;SDS011;4154;48.810;9.012;2023-05-29T15:03:16;3.50;;;3.10;;
8225;SDS011;4154;48.810;9.012;2023-05-29T15:05:44;4.30;;;3.20;;
8225;SDS011;4154;48.810;9.012;2023-05-29T15:08:18;3.80;;;3.08;;
8225;SDS011;4154;48.810;9.012;2023-05-29T15:10:47;4.57;;;2.97;;
8225;SDS011;4154;48.810;9.012;2023-05-29T15:13:13;3.92;;;2.83;;
8225;SDS011;4154;48.810;9.012;2023-05-29T15:15:41;3.78;;;3.35;;
8225;SDS011;4154;48.810;9.012;2023-05-29T15:18:07;3.97;;;3.20;;
8225;SDS011;4154;48.810;9.012;2023-05-29T15:20:36;3.35;;;3.03;;
8225;SDS011;4154;48.810;9.012;2023-05-29T15:23:22;3.83;;;2.90;;
8225;SDS011;4154;48.810;9.012;2023-05-29T15:26:08;3.42;;;3.13;;
8225;SDS011;4154;48.810;9.012;2023-05-29T15:28:39;3.25;;;2.85;;
8225;SDS011;4154;48.810;9.012;2023-05-29T15:31:08;2.92;;;2.63;;
8225;SDS011;4154;48.810;9.012;2023-05-29T15:33:34;3.20;;;2.90;;
8225;SDS011;4154;48.810;9.012;2023-05-29T15:36:00;5.22;;;3.05;;
8225;SDS011;4154;48.810;9.012;2023-05-29T15:38:26;3.10;;;2.80;;